Tetsuryumaru — JD3524 — position and weather

sailwx.info

Track history (hours):
 
Tides and Currents Weather Stations Pressure Air Temp Water Temp Dewpoint Dewpoint Depression Visibility Wind Speed Wind Dir Waves Ship Positions

Tetsuryumaru

Last reported at 2017-Oct-18 06:54 UTC. Time now 2017-Oct-19 23:28 UTC.
Position N 34°36' E 135°03'.

Length 60 m.

Type: Cargo ship. MMSI: 431004505.

Date/timePositionNaut miles runAvg speedWind from/ knotsBaromVisibWave heightAir tempDewpointWater temp
2017-Oct-18 06:54N 34°36' E 135°03'511.9
2017-Oct-18 06:31N 34°37' E 135°09'612.2
2017-Oct-18 06:00N 34°37' E 135°16'612.1
2017-Oct-18 05:30N 34°36' E 135°24'2 0.2
2017-Oct-17 17:36N 34°35' E 135°26'110.6
2017-Oct-17 17:28N 34°36' E 135°25'510.1
2017-Oct-17 17:00N 34°36' E 135°19'610.7
2017-Oct-17 16:29N 34°35' E 135°12'611.8
2017-Oct-17 16:00N 34°35' E 135°05'  
2017-Oct-14 02:10N 34°36' E 135°05'210.1
2017-Oct-14 02:00N 34°37' E 135°07'510.8
2017-Oct-14 01:30N 34°37' E 135°13'510.5
2017-Oct-14 01:00N 34°38' E 135°20'5 2.4
2017-Oct-13 22:52N 34°40' E 135°26'0 0.0
2017-Oct-13 21:40N 34°40' E 135°26'0 0.0
2017-Oct-13 21:28N 34°40' E 135°26'1 2.1
2017-Oct-13 20:48N 34°39' E 135°24'3 8.3
2017-Oct-13 20:30N 34°36' E 135°24'3 0.1
2017-Oct-12 20:59N 34°33' E 135°22'4 9.0
2017-Oct-12 20:30N 34°34' E 135°17'5 8.7
2017-Oct-12 19:59N 34°34' E 135°11'4 9.2
2017-Oct-12 19:30N 34°34' E 135°06'510.0
2017-Oct-12 19:00N 34°37' E 135°01'22 1.7
2017-Oct-12 06:02N 34°15' E 135°05'010.9
2017-Oct-12 06:00N 34°15' E 135°05'2 3.2
2017-Oct-12 05:30N 34°15' E 135°07'0 0.0
2017-Oct-12 05:00N 34°15' E 135°07'0 0.0
2017-Oct-12 04:29N 34°15' E 135°07'0 0.0
2017-Oct-12 03:59N 34°15' E 135°07'0 0.0
2017-Oct-12 03:28N 34°15' E 135°07'0 0.0
2017-Oct-12 02:59N 34°15' E 135°07'0 0.0
2017-Oct-12 02:28N 34°15' E 135°07'0 0.0
2017-Oct-12 01:58N 34°15' E 135°07'0 0.0
2017-Oct-12 01:28N 34°15' E 135°07'0 0.0
2017-Oct-12 00:59N 34°15' E 135°07'0 0.0
2017-Oct-12 00:22N 34°15' E 135°07'0 0.0
2017-Oct-11 23:58N 34°15' E 135°07'0 0.0
2017-Oct-11 23:28N 34°15' E 135°07'0 0.0
2017-Oct-11 23:00N 34°15' E 135°07'1 0.9
2017-Oct-11 22:24N 34°15' E 135°06'0 0.0
2017-Oct-11 22:00N 34°15' E 135°06'0 0.0
2017-Oct-11 21:27N 34°15' E 135°06'0 0.0
2017-Oct-11 21:00N 34°15' E 135°06'0 0.0
2017-Oct-11 20:24N 34°15' E 135°06'0 0.0
2017-Oct-11 20:00N 34°15' E 135°06'0 0.0
2017-Oct-11 19:24N 34°15' E 135°06'0 0.0
2017-Oct-11 18:42N 34°15' E 135°06'0 0.0
2017-Oct-11 17:12N 34°15' E 135°06'0 0.0
2017-Oct-11 17:00N 34°15' E 135°06'0 0.0
2017-Oct-10 23:59N 34°15' E 135°06'0 0.0
2017-Oct-10 23:25N 34°15' E 135°06'  
Track history (hours):
 
Tides and Currents Weather Stations Pressure Air Temp Water Temp Dewpoint Dewpoint Depression Visibility Wind Speed Wind Dir Waves Ship Positions

Tetsuryumaru

Last reported at 2017-Oct-18 06:54 UTC. Time now 2017-Oct-19 23:28 UTC.
Position N 34°36' E 135°03'.

Length 60 m.

Type: Cargo ship. MMSI: 431004505.

Date/timePositionNaut miles runAvg speedWind from/ knotsBaromVisibWave heightAir tempDewpointWater temp
2017-Oct-18 06:54N 34°36' E 135°03'511.9
2017-Oct-18 06:31N 34°37' E 135°09'612.2
2017-Oct-18 06:00N 34°37' E 135°16'612.1
2017-Oct-18 05:30N 34°36' E 135°24'2 0.2
2017-Oct-17 17:36N 34°35' E 135°26'110.6
2017-Oct-17 17:28N 34°36' E 135°25'510.1
2017-Oct-17 17:00N 34°36' E 135°19'610.7
2017-Oct-17 16:29N 34°35' E 135°12'611.8
2017-Oct-17 16:00N 34°35' E 135°05'  
2017-Oct-14 02:10N 34°36' E 135°05'210.1
2017-Oct-14 02:00N 34°37' E 135°07'510.8
2017-Oct-14 01:30N 34°37' E 135°13'510.5
2017-Oct-14 01:00N 34°38' E 135°20'5 2.4
2017-Oct-13 22:52N 34°40' E 135°26'0 0.0
2017-Oct-13 21:40N 34°40' E 135°26'0 0.0
2017-Oct-13 21:28N 34°40' E 135°26'1 2.1
2017-Oct-13 20:48N 34°39' E 135°24'3 8.3
2017-Oct-13 20:30N 34°36' E 135°24'3 0.1
2017-Oct-12 20:59N 34°33' E 135°22'4 9.0
2017-Oct-12 20:30N 34°34' E 135°17'5 8.7
2017-Oct-12 19:59N 34°34' E 135°11'4 9.2
2017-Oct-12 19:30N 34°34' E 135°06'510.0
2017-Oct-12 19:00N 34°37' E 135°01'22 1.7
2017-Oct-12 06:02N 34°15' E 135°05'010.9
2017-Oct-12 06:00N 34°15' E 135°05'2 3.2
2017-Oct-12 05:30N 34°15' E 135°07'0 0.0
2017-Oct-12 05:00N 34°15' E 135°07'0 0.0
2017-Oct-12 04:29N 34°15' E 135°07'0 0.0
2017-Oct-12 03:59N 34°15' E 135°07'0 0.0
2017-Oct-12 03:28N 34°15' E 135°07'0 0.0
2017-Oct-12 02:59N 34°15' E 135°07'0 0.0
2017-Oct-12 02:28N 34°15' E 135°07'0 0.0
2017-Oct-12 01:58N 34°15' E 135°07'0 0.0
2017-Oct-12 01:28N 34°15' E 135°07'0 0.0
2017-Oct-12 00:59N 34°15' E 135°07'0 0.0
2017-Oct-12 00:22N 34°15' E 135°07'0 0.0
2017-Oct-11 23:58N 34°15' E 135°07'0 0.0
2017-Oct-11 23:28N 34°15' E 135°07'0 0.0
2017-Oct-11 23:00N 34°15' E 135°07'1 0.9
2017-Oct-11 22:24N 34°15' E 135°06'0 0.0
2017-Oct-11 22:00N 34°15' E 135°06'0 0.0
2017-Oct-11 21:27N 34°15' E 135°06'0 0.0
2017-Oct-11 21:00N 34°15' E 135°06'0 0.0
2017-Oct-11 20:24N 34°15' E 135°06'0 0.0
2017-Oct-11 20:00N 34°15' E 135°06'0 0.0
2017-Oct-11 19:24N 34°15' E 135°06'0 0.0
2017-Oct-11 18:42N 34°15' E 135°06'0 0.0
2017-Oct-11 17:12N 34°15' E 135°06'0 0.0
2017-Oct-11 17:00N 34°15' E 135°06'0 0.0
2017-Oct-10 23:59N 34°15' E 135°06'0 0.0
2017-Oct-10 23:25N 34°15' E 135°06'  

Dump ship's entire track history